Hurlburt Field, FL

2:38 AM CDT on May 29, 2015 (GMT -0500)
Parrish Point | | Change Station
CLOSE
Current Station
Personal Weather Station
Location: Mary Esther, FL
Elevation: 10 ft
Nearby Weather Stations

Elev 10 ft 30.41 °N, 86.75 °W | Updated 9 seconds ago

Clear
Clear
70.2 °F
Feels Like 70.2 °F
N
1.3
Wind Variable Wind from SSE
Gusts 1.3 mph

Today
High -- | Low -- °F
--% Chance of Precip.
Yesterday
High -- | Low -- °F
Precip. -- in
5:46 AM 7:42 PM
Waxing Gibbous, 82% visible
Pressure 30.06 in
Visibility 10.0 miles
Clouds Clear
Dew Point 67 °F
Humidity 89%
Rainfall 0.00 in
Snow Depth Not available.
UV 0 out of 12
Pollen 3.50 out of 12
Air Quality Not available.
Flu Activity Sporadic
METAR KHRT 290658Z AUTO 07002KT 10SM CLR 22/20 A3005 RMK AO2 SLP177 T02200201 $

More Conditions Fewer Conditions

Pressure 30.06 in
Visibility 10.0 miles
Clouds Clear
Dew Point 67 °F
Humidity 89%
Rainfall 0.00 in
Snow Depth Not available.
UV 0 out of 12
Pollen 3.50 out of 12
Air Quality Not available.
Flu Activity Sporadic
METAR KHRT 290658Z AUTO 07002KT 10SM CLR 22/20 A3005 RMK AO2 SLP177 T02200201 $

More Conditions Fewer Conditions

10-Day Weather Forecast

Almanac

Astronomy

May. 29, 2015 Rise Set
Actual Time
Civil Twilight
Nautical Twilight
Astronomical Twilight
Moon
Length of Visible Light
Length of Day
Tomorrow will be .
, % of the Moon is Illuminated

Today's Extremes

State Highs State Lows

Community

WunderPhotos

Upload Photos

1,825,215 photos uploaded!

WunderBlogs® & News

Nearby

Air Quality

  Air Quality AQ Index Pollutant
Not available.

Snow Depth

Station Depth Elevation

Earthquake Activity

City Distance Mag. Time & Date
Minimum magnitude displayed is 2.5.

Coastal Water Temperatures

Place Temperature

Stations

Nearby Weather Stations

Station Location Temp. Windchill Dew Point Humidity Wind Precip. Elev Updated Type